Youngstown, OH (44504)

12:56 AM EST on February 11, 2016 (GMT -0500)
West Side | | Change Station
CLOSE
Current Station
Personal Weather Station
Location: Youngstown, OH
Elevation: 1010 ft
Nearby Weather Stations

Elev 1010 ft 41.09 °N, 80.70 °W | Updated 15 seconds ago

Snow
Snow
15.8 °F
Feels Like 16 °F
N
1.3
Wind Variable Wind from WNW
Gusts 2.5 mph

Today
High -- | Low -- °F
--% Chance of Precip.
Yesterday
High -- | Low -- °F
Precip. -- in
Pressure 29.97 in
Visibility 1.0 miles
Clouds Few 900 ft
Mostly Cloudy 2100 ft
Overcast 4000 ft
Windchill 16 °F
Dew Point 6 °F
Humidity 66%
Rainfall 0.00 in
Snow Depth Not available.
7:22 AM 5:51 PM
Waxing Crescent, 9% visible
METAR KYNG 110551Z 30011KT 1SM -SN FEW009 BKN021 OVC040 M09/M13 A2991 RMK AO2 SFC VIS 1 1/2 SLP147 60006 4/004 DRSN T10941128 11078 21094 53011 $
Pressure 29.97 in
Visibility 1.0 miles
Clouds Few 900 ft
Mostly Cloudy 2100 ft
Overcast 4000 ft
Windchill 16 °F
Dew Point 6 °F
Humidity 66%
Rainfall 0.00 in
Snow Depth Not available.
7:22 AM 5:51 PM
Waxing Crescent, 9% visible
METAR KYNG 110551Z 30011KT 1SM -SN FEW009 BKN021 OVC040 M09/M13 A2991 RMK AO2 SFC VIS 1 1/2 SLP147 60006 4/004 DRSN T10941128 11078 21094 53011 $

10-Day Weather Forecast

Almanac

Astronomy

Feb. 11, 2016 Rise Set
Actual Time
Civil Twilight
Nautical Twilight
Astronomical Twilight
Moon
Length of Visible Light
Length of Day
Tomorrow will be .
, % of the Moon is Illuminated

Today's Extremes

State Highs State Lows

Community

WunderPhotos

Upload Photos

1,892,023 photos uploaded!

WunderBlog® & News

Nearby

Air Quality

  Air Quality AQ Index Pollutant
Not available.

Snow Depth

Station Depth Elevation

Earthquake Activity

City Distance Mag. Time & Date
Minimum magnitude displayed is 2.5.

Coastal Water Temperatures

Place Temperature

Stations

Nearby Weather Stations

Station Location Temp. Windchill Dew Point Humidity Wind Precip. Elev Updated Type
                   

Watches & Warnings

There are currently no watches in effect.